createdAt,value
2022-08-17T00:01:13.576Z,23.94
2022-08-17T00:05:18.141Z,23.94
2022-08-17T00:09:19.699Z,23.93
2022-08-17T00:13:30.329Z,23.93
2022-08-17T00:17:31.997Z,23.84
2022-08-17T00:22:29.621Z,23.82
2022-08-17T00:25:56.826Z,23.81
2022-08-17T00:29:58.375Z,23.77
2022-08-17T00:34:00.156Z,23.71
2022-08-17T00:38:01.884Z,23.64
2022-08-17T00:42:16.128Z,23.60
2022-08-17T00:46:21.544Z,23.60
2022-08-17T00:50:23.122Z,23.59
2022-08-17T00:54:42.024Z,23.53
2022-08-17T00:58:44.619Z,23.50
2022-08-17T01:02:48.258Z,23.29
2022-08-17T01:06:50.934Z,23.22
2022-08-17T01:10:58.196Z,23.16
2022-08-17T01:15:05.762Z,23.14
2022-08-17T01:19:16.971Z,23.16
2022-08-17T01:23:21.287Z,23.15
2022-08-17T01:27:24.096Z,23.16
2022-08-17T01:31:30.235Z,23.15
2022-08-17T01:35:32.009Z,23.12
2022-08-17T01:39:44.625Z,23.14
2022-08-17T01:43:51.884Z,23.11
2022-08-17T01:47:54.467Z,23.01
2022-08-17T01:51:56.850Z,22.94
2022-08-17T01:56:07.704Z,22.91
2022-08-17T02:00:10.678Z,22.86
2022-08-17T02:04:12.901Z,22.79
2022-08-17T02:08:19.776Z,22.75
2022-08-17T02:12:38.515Z,22.66
2022-08-17T02:16:42.152Z,22.64
2022-08-17T02:20:43.724Z,22.61
2022-08-17T02:25:00.888Z,22.60
2022-08-17T02:29:04.195Z,22.56
2022-08-17T02:33:09.310Z,22.56
2022-08-17T02:37:11.214Z,22.57
2022-08-17T02:41:13.250Z,22.54
2022-08-17T02:45:19.226Z,22.52
2022-08-17T02:49:20.735Z,22.51
2022-08-17T02:53:22.554Z,22.44
2022-08-17T02:57:24.215Z,22.44
2022-08-17T03:01:25.899Z,22.44
2022-08-17T03:05:30.114Z,22.44
2022-08-17T03:09:32.336Z,22.38
2022-08-17T03:13:34.052Z,22.31
2022-08-17T03:17:35.862Z,22.24
2022-08-17T03:21:37.409Z,22.24
2022-08-17T03:25:43.387Z,22.23
2022-08-17T03:29:45.913Z,22.20
2022-08-17T03:33:48.046Z,22.23
2022-08-17T03:37:52.423Z,22.23
2022-08-17T03:42:31.407Z,22.24
2022-08-17T03:46:53.113Z,22.26
2022-08-17T03:51:15.391Z,22.30
2022-08-17T03:55:36.422Z,22.33
2022-08-17T03:59:39.137Z,22.33
2022-08-17T04:03:40.788Z,22.31
2022-08-17T04:07:42.455Z,22.30
2022-08-17T04:11:44.092Z,22.31
2022-08-17T04:15:49.006Z,22.30
2022-08-17T04:19:50.625Z,22.33
2022-08-17T04:23:52.317Z,22.38
2022-08-17T04:27:55.125Z,22.38
2022-08-17T04:31:58.030Z,22.39
2022-08-17T04:36:02.396Z,22.35
2022-08-17T04:40:22.923Z,22.29
2022-08-17T04:44:36.886Z,22.29
2022-08-17T04:48:42.669Z,22.29
2022-08-17T04:52:47.130Z,22.36
2022-08-17T04:56:49.079Z,22.48
2022-08-17T05:00:50.827Z,22.51
2022-08-17T05:04:52.407Z,22.48
2022-08-17T05:08:54.209Z,22.48
2022-08-17T05:13:29.773Z,22.56
2022-08-17T05:17:31.294Z,22.66
2022-08-17T05:21:32.963Z,22.69
2022-08-17T05:25:40.965Z,22.70
2022-08-17T05:29:42.609Z,22.75
2022-08-17T05:33:46.343Z,22.82
2022-08-17T05:37:48.229Z,22.96
2022-08-17T05:41:49.789Z,23.06
2022-08-17T05:46:05.941Z,23.12
2022-08-17T05:50:09.733Z,23.14
2022-08-17T05:54:26.396Z,23.06
2022-08-17T05:58:32.454Z,23.07
2022-08-17T06:03:04.861Z,23.03
2022-08-17T06:07:09.084Z,22.97
2022-08-17T06:11:22.780Z,23.07
2022-08-17T06:15:59.884Z,23.15
2022-08-17T06:20:08.806Z,23.14
2022-08-17T06:24:34.186Z,23.12
2022-08-17T06:28:51.619Z,23.07
2022-08-17T06:32:56.134Z,23.00
2022-08-17T06:37:23.704Z,22.96
2022-08-17T06:41:38.125Z,22.88
2022-08-17T06:45:54.171Z,22.88
2022-08-17T06:50:14.523Z,22.89
2022-08-17T06:54:20.600Z,22.94
2022-08-17T06:58:29.542Z,22.99
2022-08-17T07:03:06.675Z,23.00
2022-08-17T07:07:29.140Z,23.00
2022-08-17T07:11:48.051Z,23.00
2022-08-17T07:15:56.917Z,23.00
2022-08-17T07:20:06.318Z,23.04
2022-08-17T07:24:49.678Z,23.14
2022-08-17T07:28:51.498Z,23.21
2022-08-17T07:33:02.432Z,23.23
2022-08-17T07:37:05.444Z,23.25
2022-08-17T07:41:10.660Z,23.31
2022-08-17T07:45:34.618Z,23.42
2022-08-17T07:49:40.321Z,23.52
2022-08-17T07:53:42.148Z,23.56
2022-08-17T07:57:55.597Z,23.59
2022-08-17T08:01:58.126Z,23.59
2022-08-17T08:06:02.346Z,23.52
2022-08-17T08:10:15.149Z,23.44
2022-08-17T08:14:28.362Z,23.45
2022-08-17T08:18:56.052Z,23.50
2022-08-17T08:23:10.655Z,23.54
2022-08-17T08:27:45.764Z,23.57
2022-08-17T08:32:05.624Z,23.67
2022-08-17T08:37:12.792Z,23.69
2022-08-17T08:41:32.939Z,23.69
2022-08-17T08:45:57.798Z,23.77
2022-08-17T08:50:37.291Z,23.90
2022-08-17T08:54:58.349Z,24.00
2022-08-17T08:59:17.798Z,24.05
2022-08-17T09:03:51.499Z,24.05
2022-08-17T09:08:25.348Z,24.14
2022-08-17T09:12:54.035Z,24.27
2022-08-17T09:17:03.440Z,24.49
2022-08-17T09:21:18.257Z,24.64
2022-08-17T09:25:26.913Z,24.66
2022-08-17T09:29:35.136Z,24.63
2022-08-17T09:33:42.988Z,24.51
2022-08-17T09:38:01.803Z,24.45
2022-08-17T09:42:22.744Z,24.55
2022-08-17T09:47:07.467Z,24.64
2022-08-17T09:51:28.060Z,24.67
2022-08-17T09:55:42.623Z,24.67
2022-08-17T10:00:11.914Z,24.59
2022-08-17T10:04:53.687Z,24.49
2022-08-17T10:09:04.499Z,24.23
2022-08-17T10:13:13.702Z,24.14
2022-08-17T10:17:41.560Z,24.08
2022-08-17T10:22:19.331Z,24.02
2022-08-17T10:26:40.379Z,24.02
2022-08-17T10:31:16.576Z,24.05
2022-08-17T10:35:37.099Z,24.16
2022-08-17T10:40:00.039Z,24.26
2022-08-17T10:44:37.131Z,24.31
2022-08-17T10:48:37.328Z,24.44
2022-08-17T10:52:41.901Z,24.61
2022-08-17T10:56:46.864Z,24.87
2022-08-17T11:00:54.223Z,25.26
2022-08-17T11:05:17.391Z,25.71
2022-08-17T11:09:27.927Z,26.01
2022-08-17T11:13:52.023Z,26.49
2022-08-17T11:18:29.628Z,26.75
2022-08-17T11:22:55.611Z,26.97
2022-08-17T11:27:21.437Z,27.39
2022-08-17T11:31:37.926Z,27.69
2022-08-17T11:35:51.200Z,27.98
2022-08-17T11:40:01.634Z,27.87
2022-08-17T11:44:17.268Z,27.87
2022-08-17T11:49:11.944Z,27.86
2022-08-17T11:53:39.301Z,27.77
2022-08-17T11:57:40.787Z,27.74
2022-08-17T12:01:55.668Z,27.77
2022-08-17T12:06:30.382Z,27.80
2022-08-17T12:10:35.429Z,27.77
2022-08-17T12:15:08.105Z,27.71
2022-08-17T12:19:03.639Z,27.63
2022-08-17T12:23:20.305Z,27.68
2022-08-17T12:27:47.626Z,27.59
2022-08-17T12:31:56.140Z,27.42
2022-08-17T12:36:05.337Z,27.24
2022-08-17T12:40:18.605Z,27.09
2022-08-17T12:44:50.252Z,26.96
2022-08-17T12:48:59.303Z,26.91
2022-08-17T12:53:02.771Z,27.06
2022-08-17T12:57:12.540Z,27.24
2022-08-17T13:01:16.398Z,27.49
2022-08-17T13:05:28.960Z,27.88
2022-08-17T13:09:36.060Z,28.25
2022-08-17T13:13:50.711Z,28.54
2022-08-17T13:18:03.807Z,28.74
2022-08-17T13:22:11.062Z,28.85
2022-08-17T13:26:15.801Z,29.15
2022-08-17T13:30:28.158Z,29.49
2022-08-17T13:34:29.689Z,29.73
2022-08-17T13:38:49.510Z,29.94
2022-08-17T13:42:54.136Z,30.21
2022-08-17T13:46:57.050Z,30.22
2022-08-17T13:50:59.481Z,30.04
2022-08-17T13:55:14.804Z,30.00
2022-08-17T13:59:36.092Z,30.21
2022-08-17T14:03:52.882Z,30.22
2022-08-17T14:08:00.753Z,30.37
2022-08-17T14:12:05.674Z,30.37
2022-08-17T14:16:07.480Z,30.22
2022-08-17T14:20:12.324Z,30.59
2022-08-17T14:24:34.535Z,30.97
2022-08-17T14:28:38.619Z,31.28
2022-08-17T14:32:57.911Z,31.41
2022-08-17T14:36:59.462Z,31.46
2022-08-17T14:41:01.114Z,31.47
2022-08-17T14:45:06.080Z,31.68
2022-08-17T14:49:08.937Z,31.84
2022-08-17T14:53:15.155Z,31.97
2022-08-17T14:57:23.438Z,32.14
2022-08-17T15:01:36.741Z,32.06
2022-08-17T15:05:39.503Z,32.07
2022-08-17T15:09:41.374Z,32.13
2022-08-17T15:13:52.573Z,32.17
2022-08-17T15:17:54.976Z,32.25
2022-08-17T15:21:56.934Z,32.41
2022-08-17T15:26:00.205Z,32.49
2022-08-17T15:30:04.899Z,32.44
2022-08-17T15:34:13.173Z,32.06
2022-08-17T15:38:18.610Z,31.79
2022-08-17T15:42:26.512Z,31.47
2022-08-17T15:46:50.412Z,31.31
2022-08-17T15:50:52.470Z,31.13
2022-08-17T15:55:02.891Z,30.98
2022-08-17T15:59:05.171Z,30.79
2022-08-17T16:03:45.507Z,30.63
2022-08-17T16:07:44.652Z,30.53
2022-08-17T16:11:56.710Z,30.42
2022-08-17T16:16:01.891Z,30.32
2022-08-17T16:20:08.638Z,30.22
2022-08-17T16:24:12.838Z,30.15
2022-08-17T16:28:36.081Z,30.10
2022-08-17T16:32:41.931Z,30.01
2022-08-17T16:36:55.583Z,29.97
2022-08-17T16:41:03.537Z,29.86
2022-08-17T16:45:29.137Z,29.78
2022-08-17T16:49:37.211Z,29.69
2022-08-17T16:53:47.102Z,29.62
2022-08-17T16:58:12.105Z,29.55
2022-08-17T17:02:26.688Z,29.47
2022-08-17T17:06:49.845Z,29.39
2022-08-17T17:10:57.196Z,29.30
2022-08-17T17:15:02.864Z,29.21
2022-08-17T17:19:41.391Z,29.14
2022-08-17T17:23:59.799Z,29.05
2022-08-17T17:28:19.851Z,28.94
2022-08-17T17:32:41.404Z,28.83
2022-08-17T17:37:11.513Z,28.74
2022-08-17T17:41:30.010Z,28.61
2022-08-17T17:45:37.936Z,28.50
2022-08-17T17:49:50.392Z,28.39
2022-08-17T17:54:07.277Z,28.28
2022-08-17T17:58:19.749Z,28.20
2022-08-17T18:02:43.017Z,28.08
2022-08-17T18:06:56.313Z,28.01
2022-08-17T18:11:25.212Z,27.90
2022-08-17T18:15:38.188Z,27.81
2022-08-17T18:19:48.010Z,27.72
2022-08-17T18:24:00.414Z,27.63
2022-08-17T18:28:08.033Z,27.53
2022-08-17T18:32:33.666Z,27.40
2022-08-17T18:36:39.864Z,27.30
2022-08-17T18:40:52.918Z,27.24
2022-08-17T18:44:56.895Z,27.16
2022-08-17T18:49:07.657Z,27.09
2022-08-17T18:53:37.919Z,27.02
2022-08-17T18:57:43.398Z,26.91
2022-08-17T19:01:59.941Z,26.83
2022-08-17T19:06:27.795Z,26.69
2022-08-17T19:10:46.445Z,26.60
2022-08-17T19:14:52.826Z,26.44
2022-08-17T19:19:20.554Z,26.34
2022-08-17T19:23:35.566Z,26.29
2022-08-17T19:27:49.969Z,26.29
2022-08-17T19:32:01.190Z,26.29
2022-08-17T19:36:26.440Z,26.28
2022-08-17T19:40:53.516Z,26.28
2022-08-17T19:45:21.690Z,26.24
2022-08-17T19:50:02.176Z,26.21
2022-08-17T19:54:20.677Z,26.17
2022-08-17T19:58:49.958Z,26.13
2022-08-17T20:03:19.258Z,26.04
2022-08-17T20:07:30.386Z,25.96
2022-08-17T20:11:46.658Z,25.89
2022-08-17T20:15:50.749Z,25.83
2022-08-17T20:20:01.303Z,25.79
2022-08-17T20:24:48.030Z,25.76
2022-08-17T20:29:19.289Z,25.71
2022-08-17T20:33:39.926Z,25.61
2022-08-17T20:37:52.981Z,25.59
2022-08-17T20:42:21.906Z,25.54
2022-08-17T20:46:31.319Z,25.49
2022-08-17T20:50:38.943Z,25.48
2022-08-17T20:54:53.259Z,25.41
2022-08-17T20:59:04.849Z,25.35
2022-08-17T21:03:26.873Z,25.31
2022-08-17T21:07:42.976Z,25.29
2022-08-17T21:12:04.514Z,25.26
2022-08-17T21:16:26.017Z,25.22
2022-08-17T21:20:40.284Z,25.19
2022-08-17T21:25:03.594Z,25.12
2022-08-17T21:29:32.286Z,25.09
2022-08-17T21:33:39.713Z,25.07
2022-08-17T21:37:53.279Z,25.05
2022-08-17T21:41:57.096Z,25.02
2022-08-17T21:46:10.971Z,25.01
2022-08-17T21:50:26.158Z,25.01
2022-08-17T21:54:41.883Z,24.93
2022-08-17T21:58:48.699Z,24.80
2022-08-17T22:03:09.307Z,24.71
2022-08-17T22:07:13.733Z,24.68
2022-08-17T22:11:17.164Z,24.67
2022-08-17T22:15:23.204Z,24.67
2022-08-17T22:19:25.260Z,24.66
2022-08-17T22:24:09.548Z,24.66
2022-08-17T22:28:14.719Z,24.66
2022-08-17T22:32:35.173Z,24.67
2022-08-17T22:36:42.978Z,24.70
2022-08-17T22:41:18.029Z,24.70
2022-08-17T22:45:20.270Z,24.70
2022-08-17T22:49:30.988Z,24.68
2022-08-17T22:53:53.643Z,24.68
2022-08-17T22:58:27.928Z,24.71
2022-08-17T23:02:33.874Z,24.74
2022-08-17T23:06:42.723Z,24.74
2022-08-17T23:10:48.668Z,24.70
2022-08-17T23:15:03.302Z,24.68
2022-08-17T23:19:09.996Z,24.67
2022-08-17T23:23:25.843Z,24.63
2022-08-17T23:27:40.817Z,24.60
2022-08-17T23:31:49.245Z,24.55
2022-08-17T23:35:51.425Z,24.48
2022-08-17T23:40:06.966Z,24.41
2022-08-17T23:44:13.802Z,24.36
2022-08-17T23:48:28.426Z,24.29
2022-08-17T23:52:41.621Z,24.23
2022-08-17T23:56:49.471Z,24.18
